Denver International Airport
KDEN : now visible

Airfield :











YOU CAN JOIN US ON...

 
LOGIN :

Register | Disclaimer

   EN    FR    IT 

 









Legend :    VFR   Marginal VFR   IFR   Intensive IFR   Very Intensive IFR
Visi :
Ceiling :
>= 8 km
>= 3000ft
5 to 8 km
1000 to 3000 ft
1500m to 5 km
500 to 1000 ft
800 to 1500m
200 to 500 ft
< 800m
< 200 ft
Symbols :   Thunderstorms  Fog  Heavy snow  Heavy precipitations  Wind > 20 kt






- Airport Elevation : 5431 ft
- IATA code : DEN


KDEN - Denver International

CURRENT METAR :
  • 230053Z 01007KT 10SM FEW048 BKN065 BKN200 09/02 A2978 RMK AO2 RAB35E49 SLP072 P0000 T00890017

EXPIRED METARs :
  • 222353Z VRB03KT 10SM SCT075 BKN100 BKN200 09/01 A2976 RMK AO2 SLP070 T00940006 10106 20033 53004
  • 222253Z 09003KT 10SM FEW055 FEW075 BKN130 BKN200 09/01 A2974 RMK AO2 SLP065 T00890011

TAF KDEN
Valid from the 23 at 00:00 until the 24 at 06:00 UTC


222330Z 2300/2406 VRB06KT P6SM VCSH FEW060 BKN130 BKN200
FM230300 23007KT P6SM FEW070 SCT140 BKN200
FM230600 20009KT P6SM FEW120 SCT220
FM231500 01007KT P6SM SCT220
FM232000 03008KT P6SM VCSH SCT100 BKN140
FM240300 VRB06KT P6SM FEW100 SCT180
KZDV FIR / North America



MET'MAP, your aeronautical weather chart ! - Copyright ORBIFLY December 2007 - Disclaimer

ORBIFLY MET'MAP TEAM :

Programming & Development : Alexandra Zaïnal
Concept & original design : Baudouin d'Aumeries
Assistance for programming : Marc-Olivier Méhu
Technical & hardware support : Manuel Goepfert

Contact : metmap@orbifly.com




SOURCES & CREDITS :

   NOAA       Earth
Advisory